sensor_id;sensor_type;location;lat;lon;timestamp;pressure;altitude;pressure_sealevel;temperature;humidity
10652;BME280;5374;42.742;23.266;2023-12-22T00:01:15;94005.50;;;1.51;100.00
10652;BME280;5374;42.742;23.266;2023-12-22T00:04:03;93994.00;;;1.52;100.00
10652;BME280;5374;42.742;23.266;2023-12-22T00:06:51;93989.13;;;1.55;100.00
10652;BME280;5374;42.742;23.266;2023-12-22T00:09:39;93971.50;;;1.51;100.00
10652;BME280;5374;42.742;23.266;2023-12-22T00:12:27;93981.13;;;1.62;100.00
10652;BME280;5374;42.742;23.266;2023-12-22T00:15:14;93978.84;;;1.65;100.00
10652;BME280;5374;42.742;23.266;2023-12-22T00:18:03;93960.78;;;1.64;100.00
10652;BME280;5374;42.742;23.266;2023-12-22T00:20:52;93952.59;;;1.60;100.00
10652;BME280;5374;42.742;23.266;2023-12-22T00:23:39;93963.03;;;1.72;100.00
10652;BME280;5374;42.742;23.266;2023-12-22T00:26:26;93954.41;;;1.60;100.00
10652;BME280;5374;42.742;23.266;2023-12-22T00:29:13;93948.16;;;1.61;100.00
10652;BME280;5374;42.742;23.266;2023-12-22T00:32:00;93924.31;;;1.46;100.00
10652;BME280;5374;42.742;23.266;2023-12-22T00:34:49;93937.13;;;1.59;100.00
10652;BME280;5374;42.742;23.266;2023-12-22T00:37:36;93935.28;;;1.71;100.00
10652;BME280;5374;42.742;23.266;2023-12-22T00:40:23;93941.09;;;1.73;100.00
10652;BME280;5374;42.742;23.266;2023-12-22T00:43:10;93938.69;;;1.71;100.00
10652;BME280;5374;42.742;23.266;2023-12-22T00:45:57;93946.88;;;1.75;100.00
10652;BME280;5374;42.742;23.266;2023-12-22T00:48:44;93942.78;;;1.79;100.00
10652;BME280;5374;42.742;23.266;2023-12-22T00:51:33;93940.16;;;1.79;100.00
10652;BME280;5374;42.742;23.266;2023-12-22T00:54:20;93934.53;;;1.87;100.00
10652;BME280;5374;42.742;23.266;2023-12-22T00:57:07;93932.50;;;1.89;100.00
10652;BME280;5374;42.742;23.266;2023-12-22T00:59:54;93932.09;;;1.81;100.00
10652;BME280;5374;42.742;23.266;2023-12-22T01:02:41;93926.59;;;1.82;100.00
10652;BME280;5374;42.742;23.266;2023-12-22T01:05:29;93929.78;;;1.84;100.00
10652;BME280;5374;42.742;23.266;2023-12-22T01:08:17;93928.84;;;1.90;100.00
10652;BME280;5374;42.742;23.266;2023-12-22T01:11:04;93927.34;;;1.94;100.00
10652;BME280;5374;42.742;23.266;2023-12-22T01:13:51;93928.03;;;2.01;100.00
10652;BME280;5374;42.742;23.266;2023-12-22T01:16:38;93918.41;;;2.07;100.00
10652;BME280;5374;42.742;23.266;2023-12-22T01:19:26;93907.91;;;1.90;100.00
10652;BME280;5374;42.742;23.266;2023-12-22T01:22:13;93921.66;;;1.97;100.00
10652;BME280;5374;42.742;23.266;2023-12-22T01:25:01;93889.91;;;1.65;100.00
10652;BME280;5374;42.742;23.266;2023-12-22T01:27:49;93908.97;;;2.06;100.00
10652;BME280;5374;42.742;23.266;2023-12-22T01:30:38;93898.28;;;2.08;100.00
10652;BME280;5374;42.742;23.266;2023-12-22T01:33:25;93872.16;;;1.96;100.00
10652;BME280;5374;42.742;23.266;2023-12-22T01:36:12;93897.56;;;2.12;100.00
10652;BME280;5374;42.742;23.266;2023-12-22T01:38:59;93885.19;;;2.08;100.00
10652;BME280;5374;42.742;23.266;2023-12-22T01:41:51;93875.50;;;2.08;100.00
10652;BME280;5374;42.742;23.266;2023-12-22T01:44:38;93875.69;;;2.18;100.00
10652;BME280;5374;42.742;23.266;2023-12-22T01:47:25;93875.38;;;2.15;100.00
10652;BME280;5374;42.742;23.266;2023-12-22T01:50:14;93896.41;;;2.20;100.00
10652;BME280;5374;42.742;23.266;2023-12-22T01:53:02;93872.28;;;2.18;100.00
10652;BME280;5374;42.742;23.266;2023-12-22T01:55:50;93860.28;;;2.05;100.00
10652;BME280;5374;42.742;23.266;2023-12-22T01:58:39;93871.72;;;2.16;100.00
10652;BME280;5374;42.742;23.266;2023-12-22T02:01:28;93875.13;;;2.16;100.00
10652;BME280;5374;42.742;23.266;2023-12-22T02:04:15;93874.34;;;2.16;100.00
10652;BME280;5374;42.742;23.266;2023-12-22T02:07:04;93880.84;;;2.13;100.00
10652;BME280;5374;42.742;23.266;2023-12-22T02:09:56;93872.75;;;2.15;100.00
10652;BME280;5374;42.742;23.266;2023-12-22T02:12:44;93867.75;;;2.13;100.00
10652;BME280;5374;42.742;23.266;2023-12-22T02:15:33;93856.81;;;2.16;100.00
10652;BME280;5374;42.742;23.266;2023-12-22T02:18:23;93852.47;;;2.22;100.00
10652;BME280;5374;42.742;23.266;2023-12-22T02:21:14;93793.16;;;1.82;100.00
10652;BME280;5374;42.742;23.266;2023-12-22T02:24:04;93853.03;;;2.24;100.00
10652;BME280;5374;42.742;23.266;2023-12-22T02:26:51;93855.63;;;2.24;100.00
10652;BME280;5374;42.742;23.266;2023-12-22T02:29:43;93848.16;;;2.16;100.00
10652;BME280;5374;42.742;23.266;2023-12-22T02:32:36;93850.22;;;1.97;100.00
10652;BME280;5374;42.742;23.266;2023-12-22T02:35:26;93849.78;;;1.88;100.00
10652;BME280;5374;42.742;23.266;2023-12-22T02:38:16;93856.28;;;1.86;100.00
10652;BME280;5374;42.742;23.266;2023-12-22T02:41:05;93857.88;;;1.87;100.00
10652;BME280;5374;42.742;23.266;2023-12-22T02:43:52;93851.56;;;1.71;100.00
10652;BME280;5374;42.742;23.266;2023-12-22T02:46:40;93845.44;;;1.65;100.00
10652;BME280;5374;42.742;23.266;2023-12-22T02:49:30;93832.78;;;1.74;100.00
10652;BME280;5374;42.742;23.266;2023-12-22T02:52:17;93821.88;;;1.77;100.00
10652;BME280;5374;42.742;23.266;2023-12-22T02:55:06;93820.03;;;1.78;100.00
10652;BME280;5374;42.742;23.266;2023-12-22T02:57:54;93797.47;;;1.60;100.00
10652;BME280;5374;42.742;23.266;2023-12-22T03:00:41;93823.47;;;1.78;100.00
10652;BME280;5374;42.742;23.266;2023-12-22T03:03:28;93827.16;;;1.82;100.00
10652;BME280;5374;42.742;23.266;2023-12-22T03:06:16;93831.69;;;1.87;100.00
10652;BME280;5374;42.742;23.266;2023-12-22T03:09:05;93832.25;;;1.89;100.00
10652;BME280;5374;42.742;23.266;2023-12-22T03:11:52;93825.75;;;1.91;100.00
10652;BME280;5374;42.742;23.266;2023-12-22T03:14:41;93830.28;;;1.96;100.00
10652;BME280;5374;42.742;23.266;2023-12-22T03:17:28;93828.34;;;2.03;100.00
10652;BME280;5374;42.742;23.266;2023-12-22T03:20:16;93833.88;;;2.06;100.00
10652;BME280;5374;42.742;23.266;2023-12-22T03:23:03;93836.81;;;2.10;100.00
10652;BME280;5374;42.742;23.266;2023-12-22T03:25:50;93828.81;;;2.17;100.00
10652;BME280;5374;42.742;23.266;2023-12-22T03:28:37;93828.72;;;2.12;100.00
10652;BME280;5374;42.742;23.266;2023-12-22T03:31:26;93830.88;;;2.15;100.00
10652;BME280;5374;42.742;23.266;2023-12-22T03:34:13;93835.53;;;2.13;100.00
10652;BME280;5374;42.742;23.266;2023-12-22T03:37:01;93817.22;;;2.13;100.00
10652;BME280;5374;42.742;23.266;2023-12-22T03:39:48;93826.66;;;2.14;100.00
10652;BME280;5374;42.742;23.266;2023-12-22T03:42:37;93817.78;;;2.15;100.00
10652;BME280;5374;42.742;23.266;2023-12-22T03:45:24;93812.16;;;2.23;100.00
10652;BME280;5374;42.742;23.266;2023-12-22T03:48:12;93809.84;;;2.26;100.00
10652;BME280;5374;42.742;23.266;2023-12-22T03:51:00;93815.72;;;2.33;100.00
10652;BME280;5374;42.742;23.266;2023-12-22T03:53:47;93812.38;;;2.38;100.00
10652;BME280;5374;42.742;23.266;2023-12-22T03:56:34;93820.31;;;2.43;100.00
10652;BME280;5374;42.742;23.266;2023-12-22T03:59:21;93813.16;;;2.55;100.00
10652;BME280;5374;42.742;23.266;2023-12-22T04:02:08;93817.13;;;2.58;100.00
10652;BME280;5374;42.742;23.266;2023-12-22T04:04:57;93813.47;;;2.59;100.00
10652;BME280;5374;42.742;23.266;2023-12-22T04:07:44;93809.66;;;2.66;100.00
10652;BME280;5374;42.742;23.266;2023-12-22T04:10:31;93813.09;;;2.67;100.00
10652;BME280;5374;42.742;23.266;2023-12-22T04:13:18;93784.25;;;2.50;100.00
10652;BME280;5374;42.742;23.266;2023-12-22T04:16:06;93760.00;;;2.38;100.00
10652;BME280;5374;42.742;23.266;2023-12-22T04:18:53;93819.78;;;2.80;100.00
10652;BME280;5374;42.742;23.266;2023-12-22T04:21:41;93805.66;;;2.81;100.00
10652;BME280;5374;42.742;23.266;2023-12-22T04:24:30;93808.44;;;2.91;100.00
10652;BME280;5374;42.742;23.266;2023-12-22T04:27:17;93810.44;;;2.84;100.00
10652;BME280;5374;42.742;23.266;2023-12-22T04:30:05;93810.25;;;2.90;100.00
10652;BME280;5374;42.742;23.266;2023-12-22T04:32:53;93798.50;;;2.93;100.00
10652;BME280;5374;42.742;23.266;2023-12-22T04:35:40;93802.19;;;2.97;100.00
10652;BME280;5374;42.742;23.266;2023-12-22T04:38:28;93799.56;;;2.97;100.00
10652;BME280;5374;42.742;23.266;2023-12-22T04:41:15;93778.50;;;2.87;100.00
10652;BME280;5374;42.742;23.266;2023-12-22T04:44:03;93795.59;;;3.11;100.00
10652;BME280;5374;42.742;23.266;2023-12-22T04:46:50;93789.53;;;3.11;100.00
10652;BME280;5374;42.742;23.266;2023-12-22T04:49:39;93774.47;;;3.01;100.00
10652;BME280;5374;42.742;23.266;2023-12-22T04:52:27;93775.81;;;3.03;100.00
10652;BME280;5374;42.742;23.266;2023-12-22T04:55:15;93772.88;;;3.00;100.00
10652;BME280;5374;42.742;23.266;2023-12-22T04:58:03;93768.34;;;3.17;100.00
10652;BME280;5374;42.742;23.266;2023-12-22T05:00:50;93771.84;;;3.23;100.00
10652;BME280;5374;42.742;23.266;2023-12-22T05:03:37;93778.66;;;3.24;100.00
10652;BME280;5374;42.742;23.266;2023-12-22T05:06:25;93774.59;;;3.33;100.00
10652;BME280;5374;42.742;23.266;2023-12-22T05:09:12;93775.63;;;3.32;100.00
10652;BME280;5374;42.742;23.266;2023-12-22T05:12:00;93767.75;;;3.32;100.00
10652;BME280;5374;42.742;23.266;2023-12-22T05:14:47;93766.72;;;3.33;100.00
10652;BME280;5374;42.742;23.266;2023-12-22T05:17:35;93767.03;;;3.36;100.00
10652;BME280;5374;42.742;23.266;2023-12-22T05:20:22;93766.91;;;3.26;100.00
10652;BME280;5374;42.742;23.266;2023-12-22T05:23:09;93775.81;;;3.25;100.00
10652;BME280;5374;42.742;23.266;2023-12-22T05:25:57;93789.66;;;3.21;100.00
10652;BME280;5374;42.742;23.266;2023-12-22T05:28:46;93782.88;;;3.25;100.00
10652;BME280;5374;42.742;23.266;2023-12-22T05:31:36;93780.56;;;3.28;100.00
10652;BME280;5374;42.742;23.266;2023-12-22T05:34:23;93776.28;;;3.22;100.00
10652;BME280;5374;42.742;23.266;2023-12-22T05:37:10;93767.22;;;3.30;100.00
10652;BME280;5374;42.742;23.266;2023-12-22T05:39:57;93777.56;;;3.41;100.00
10652;BME280;5374;42.742;23.266;2023-12-22T05:42:44;93765.19;;;3.37;100.00
10652;BME280;5374;42.742;23.266;2023-12-22T05:45:33;93766.50;;;3.39;100.00
10652;BME280;5374;42.742;23.266;2023-12-22T05:48:20;93768.41;;;3.44;100.00
10652;BME280;5374;42.742;23.266;2023-12-22T05:51:07;93771.38;;;3.53;100.00
10652;BME280;5374;42.742;23.266;2023-12-22T05:53:59;93756.13;;;3.50;100.00
10652;BME280;5374;42.742;23.266;2023-12-22T05:56:46;93767.78;;;3.59;100.00
10652;BME280;5374;42.742;23.266;2023-12-22T05:59:33;93759.94;;;3.64;100.00
10652;BME280;5374;42.742;23.266;2023-12-22T06:02:22;93766.03;;;3.69;100.00
10652;BME280;5374;42.742;23.266;2023-12-22T06:05:09;93774.75;;;3.75;100.00
10652;BME280;5374;42.742;23.266;2023-12-22T06:07:57;93767.44;;;3.77;100.00
10652;BME280;5374;42.742;23.266;2023-12-22T06:10:44;93765.66;;;3.83;100.00
10652;BME280;5374;42.742;23.266;2023-12-22T06:13:31;93769.34;;;3.87;100.00
10652;BME280;5374;42.742;23.266;2023-12-22T06:16:18;93763.03;;;3.83;100.00
10652;BME280;5374;42.742;23.266;2023-12-22T06:19:07;93773.56;;;3.88;100.00
10652;BME280;5374;42.742;23.266;2023-12-22T06:21:55;93756.47;;;3.85;100.00
10652;BME280;5374;42.742;23.266;2023-12-22T06:24:42;93769.00;;;4.05;100.00
10652;BME280;5374;42.742;23.266;2023-12-22T06:27:31;93755.44;;;3.86;100.00
10652;BME280;5374;42.742;23.266;2023-12-22T06:30:19;93728.50;;;3.69;100.00
10652;BME280;5374;42.742;23.266;2023-12-22T06:33:06;93764.25;;;4.07;100.00
10652;BME280;5374;42.742;23.266;2023-12-22T06:35:55;93745.53;;;3.93;100.00
10652;BME280;5374;42.742;23.266;2023-12-22T06:38:42;93753.69;;;3.97;100.00
10652;BME280;5374;42.742;23.266;2023-12-22T06:41:31;93738.38;;;3.89;100.00
10652;BME280;5374;42.742;23.266;2023-12-22T06:44:18;93770.31;;;4.07;100.00
10652;BME280;5374;42.742;23.266;2023-12-22T06:47:05;93765.59;;;4.04;100.00
10652;BME280;5374;42.742;23.266;2023-12-22T06:49:52;93789.34;;;4.20;100.00
10652;BME280;5374;42.742;23.266;2023-12-22T06:52:41;93777.00;;;4.20;100.00
10652;BME280;5374;42.742;23.266;2023-12-22T06:55:29;93768.38;;;4.25;100.00
10652;BME280;5374;42.742;23.266;2023-12-22T06:58:16;93773.03;;;4.18;100.00
10652;BME280;5374;42.742;23.266;2023-12-22T07:01:03;93776.00;;;4.31;100.00
10652;BME280;5374;42.742;23.266;2023-12-22T07:03:51;93780.03;;;4.39;100.00
10652;BME280;5374;42.742;23.266;2023-12-22T07:06:39;93780.91;;;4.50;100.00
10652;BME280;5374;42.742;23.266;2023-12-22T07:09:33;93785.91;;;4.56;100.00
10652;BME280;5374;42.742;23.266;2023-12-22T07:12:20;93783.06;;;4.63;100.00
10652;BME280;5374;42.742;23.266;2023-12-22T07:15:08;93785.41;;;4.59;100.00
10652;BME280;5374;42.742;23.266;2023-12-22T07:17:56;93797.34;;;4.77;100.00
10652;BME280;5374;42.742;23.266;2023-12-22T07:20:43;93795.03;;;4.86;100.00
10652;BME280;5374;42.742;23.266;2023-12-22T07:23:30;93802.94;;;4.86;100.00
10652;BME280;5374;42.742;23.266;2023-12-22T07:26:19;93805.56;;;4.86;100.00
10652;BME280;5374;42.742;23.266;2023-12-22T07:29:07;93774.97;;;4.69;100.00
10652;BME280;5374;42.742;23.266;2023-12-22T07:31:55;93808.47;;;4.89;100.00
10652;BME280;5374;42.742;23.266;2023-12-22T07:34:47;93808.78;;;4.98;100.00
10652;BME280;5374;42.742;23.266;2023-12-22T07:37:35;93793.25;;;4.91;100.00
10652;BME280;5374;42.742;23.266;2023-12-22T07:40:23;93749.19;;;4.66;100.00
10652;BME280;5374;42.742;23.266;2023-12-22T07:43:12;93816.19;;;5.06;100.00
10652;BME280;5374;42.742;23.266;2023-12-22T07:46:00;93812.22;;;5.03;100.00
10652;BME280;5374;42.742;23.266;2023-12-22T07:48:47;93813.84;;;5.09;100.00
10652;BME280;5374;42.742;23.266;2023-12-22T07:51:34;93814.09;;;5.08;100.00
10652;BME280;5374;42.742;23.266;2023-12-22T07:54:22;93790.06;;;4.89;100.00
10652;BME280;5374;42.742;23.266;2023-12-22T07:57:09;93824.41;;;5.14;100.00
10652;BME280;5374;42.742;23.266;2023-12-22T07:59:57;93830.69;;;5.08;100.00
10652;BME280;5374;42.742;23.266;2023-12-22T08:02:45;93837.81;;;5.13;100.00
10652;BME280;5374;42.742;23.266;2023-12-22T08:05:32;93840.94;;;5.10;100.00
10652;BME280;5374;42.742;23.266;2023-12-22T08:08:19;93848.03;;;5.09;100.00
10652;BME280;5374;42.742;23.266;2023-12-22T08:11:06;93860.47;;;5.19;100.00
10652;BME280;5374;42.742;23.266;2023-12-22T08:13:54;93860.97;;;5.21;100.00
10652;BME280;5374;42.742;23.266;2023-12-22T08:16:42;93862.31;;;5.19;100.00
10652;BME280;5374;42.742;23.266;2023-12-22T08:19:30;93853.78;;;5.01;100.00
10652;BME280;5374;42.742;23.266;2023-12-22T08:22:17;93859.66;;;5.13;100.00
10652;BME280;5374;42.742;23.266;2023-12-22T08:25:05;93855.69;;;5.11;100.00
10652;BME280;5374;42.742;23.266;2023-12-22T08:27:53;93853.84;;;5.11;100.00
10652;BME280;5374;42.742;23.266;2023-12-22T08:30:40;93869.91;;;5.15;100.00
10652;BME280;5374;42.742;23.266;2023-12-22T08:33:30;93865.78;;;5.29;100.00
10652;BME280;5374;42.742;23.266;2023-12-22T08:36:17;93877.63;;;5.32;100.00
10652;BME280;5374;42.742;23.266;2023-12-22T08:39:04;93844.63;;;5.09;100.00
10652;BME280;5374;42.742;23.266;2023-12-22T08:41:52;93874.75;;;5.33;100.00
10652;BME280;5374;42.742;23.266;2023-12-22T08:44:39;93870.31;;;5.44;100.00
10652;BME280;5374;42.742;23.266;2023-12-22T08:47:26;93871.97;;;5.55;100.00
10652;BME280;5374;42.742;23.266;2023-12-22T08:50:14;93869.09;;;5.62;100.00
10652;BME280;5374;42.742;23.266;2023-12-22T08:53:03;93867.81;;;5.64;100.00
10652;BME280;5374;42.742;23.266;2023-12-22T08:55:50;93858.81;;;5.60;100.00
10652;BME280;5374;42.742;23.266;2023-12-22T08:58:37;93870.16;;;5.61;100.00
10652;BME280;5374;42.742;23.266;2023-12-22T09:01:25;93877.28;;;5.70;100.00
10652;BME280;5374;42.742;23.266;2023-12-22T09:04:13;93878.59;;;5.73;100.00
10652;BME280;5374;42.742;23.266;2023-12-22T09:07:03;93894.97;;;5.80;100.00
10652;BME280;5374;42.742;23.266;2023-12-22T09:09:50;93897.59;;;5.75;100.00
10652;BME280;5374;42.742;23.266;2023-12-22T09:12:38;93889.13;;;5.63;100.00
10652;BME280;5374;42.742;23.266;2023-12-22T09:15:25;93898.94;;;5.88;100.00
10652;BME280;5374;42.742;23.266;2023-12-22T09:18:12;93893.34;;;5.69;100.00
10652;BME280;5374;42.742;23.266;2023-12-22T09:21:01;93892.09;;;5.81;100.00
10652;BME280;5374;42.742;23.266;2023-12-22T09:23:50;93895.53;;;5.87;100.00
10652;BME280;5374;42.742;23.266;2023-12-22T09:26:37;93888.19;;;5.94;100.00
10652;BME280;5374;42.742;23.266;2023-12-22T09:29:25;93877.13;;;5.92;100.00
10652;BME280;5374;42.742;23.266;2023-12-22T09:32:12;93880.06;;;6.11;100.00
10652;BME280;5374;42.742;23.266;2023-12-22T09:34:59;93870.84;;;6.13;100.00
10652;BME280;5374;42.742;23.266;2023-12-22T09:37:47;93876.13;;;6.08;100.00
10652;BME280;5374;42.742;23.266;2023-12-22T09:40:36;93870.09;;;6.23;100.00
10652;BME280;5374;42.742;23.266;2023-12-22T09:43:24;93865.84;;;6.17;100.00
10652;BME280;5374;42.742;23.266;2023-12-22T09:46:11;93882.25;;;6.39;100.00
10652;BME280;5374;42.742;23.266;2023-12-22T09:49:00;93866.19;;;6.46;100.00
10652;BME280;5374;42.742;23.266;2023-12-22T09:51:49;93868.81;;;6.61;100.00
10652;BME280;5374;42.742;23.266;2023-12-22T09:54:37;93875.69;;;6.72;100.00
10652;BME280;5374;42.742;23.266;2023-12-22T09:57:28;93878.59;;;6.71;100.00
10652;BME280;5374;42.742;23.266;2023-12-22T10:00:17;93869.34;;;6.63;100.00
10652;BME280;5374;42.742;23.266;2023-12-22T10:03:06;93838.22;;;6.60;100.00
10652;BME280;5374;42.742;23.266;2023-12-22T10:05:53;93855.91;;;6.75;100.00
10652;BME280;5374;42.742;23.266;2023-12-22T10:08:41;93845.34;;;6.70;100.00
10652;BME280;5374;42.742;23.266;2023-12-22T10:11:28;93860.91;;;6.86;100.00
10652;BME280;5374;42.742;23.266;2023-12-22T10:14:18;93834.25;;;6.93;100.00
10652;BME280;5374;42.742;23.266;2023-12-22T10:17:08;93815.75;;;7.03;100.00
10652;BME280;5374;42.742;23.266;2023-12-22T10:19:55;93832.38;;;7.19;100.00
10652;BME280;5374;42.742;23.266;2023-12-22T10:22:42;93838.13;;;7.31;100.00
10652;BME280;5374;42.742;23.266;2023-12-22T10:25:30;93819.88;;;7.45;100.00
10652;BME280;5374;42.742;23.266;2023-12-22T10:28:18;93814.78;;;7.64;100.00
10652;BME280;5374;42.742;23.266;2023-12-22T10:31:11;93825.78;;;7.86;100.00
10652;BME280;5374;42.742;23.266;2023-12-22T10:33:58;93816.25;;;7.90;100.00
10652;BME280;5374;42.742;23.266;2023-12-22T10:36:46;93814.63;;;7.94;100.00
10652;BME280;5374;42.742;23.266;2023-12-22T10:39:36;93798.81;;;7.89;100.00
10652;BME280;5374;42.742;23.266;2023-12-22T10:42:23;93774.00;;;7.85;100.00
10652;BME280;5374;42.742;23.266;2023-12-22T10:45:11;93772.13;;;7.91;100.00
10652;BME280;5374;42.742;23.266;2023-12-22T10:48:00;93778.88;;;8.07;100.00
10652;BME280;5374;42.742;23.266;2023-12-22T10:50:48;93791.69;;;8.29;100.00
10652;BME280;5374;42.742;23.266;2023-12-22T10:53:35;93777.81;;;8.47;100.00
10652;BME280;5374;42.742;23.266;2023-12-22T10:56:22;93772.16;;;8.58;100.00
10652;BME280;5374;42.742;23.266;2023-12-22T10:59:09;93771.00;;;8.70;100.00
10652;BME280;5374;42.742;23.266;2023-12-22T11:01:57;93776.09;;;8.61;100.00
10652;BME280;5374;42.742;23.266;2023-12-22T11:04:55;93772.94;;;8.59;100.00
10652;BME280;5374;42.742;23.266;2023-12-22T11:07:48;93762.03;;;8.66;100.00
10652;BME280;5374;42.742;23.266;2023-12-22T11:10:37;93754.69;;;8.86;100.00
10652;BME280;5374;42.742;23.266;2023-12-22T11:13:28;93746.13;;;9.00;100.00
10652;BME280;5374;42.742;23.266;2023-12-22T11:16:16;93741.16;;;9.17;100.00
10652;BME280;5374;42.742;23.266;2023-12-22T11:19:04;93728.22;;;9.34;100.00
10652;BME280;5374;42.742;23.266;2023-12-22T11:21:54;93738.16;;;9.47;100.00
10652;BME280;5374;42.742;23.266;2023-12-22T11:24:43;93739.91;;;9.33;100.00
10652;BME280;5374;42.742;23.266;2023-12-22T11:27:33;93747.84;;;9.33;100.00
10652;BME280;5374;42.742;23.266;2023-12-22T11:30:21;93759.56;;;9.27;100.00
10652;BME280;5374;42.742;23.266;2023-12-22T11:33:09;93753.66;;;9.11;100.00
10652;BME280;5374;42.742;23.266;2023-12-22T11:35:57;93779.53;;;9.19;100.00
10652;BME280;5374;42.742;23.266;2023-12-22T11:38:47;93780.81;;;8.98;100.00
10652;BME280;5374;42.742;23.266;2023-12-22T11:41:36;93798.59;;;8.93;100.00
10652;BME280;5374;42.742;23.266;2023-12-22T11:44:26;93787.00;;;8.83;100.00
10652;BME280;5374;42.742;23.266;2023-12-22T11:47:16;93787.13;;;8.73;100.00
10652;BME280;5374;42.742;23.266;2023-12-22T11:50:04;93792.97;;;8.70;100.00
10652;BME280;5374;42.742;23.266;2023-12-22T11:52:55;93777.66;;;8.67;100.00
10652;BME280;5374;42.742;23.266;2023-12-22T11:56:01;93785.06;;;8.65;100.00
10652;BME280;5374;42.742;23.266;2023-12-22T11:58:52;93772.63;;;8.66;100.00
10652;BME280;5374;42.742;23.266;2023-12-22T12:01:40;93770.22;;;8.69;100.00
10652;BME280;5374;42.742;23.266;2023-12-22T12:04:28;93784.03;;;8.61;100.00
10652;BME280;5374;42.742;23.266;2023-12-22T12:07:41;93791.19;;;8.61;100.00
10652;BME280;5374;42.742;23.266;2023-12-22T12:10:50;93786.69;;;8.61;100.00
10652;BME280;5374;42.742;23.266;2023-12-22T12:13:42;93796.44;;;8.66;100.00
10652;BME280;5374;42.742;23.266;2023-12-22T12:16:30;93775.22;;;8.42;100.00
10652;BME280;5374;42.742;23.266;2023-12-22T12:19:18;93760.38;;;8.46;100.00
10652;BME280;5374;42.742;23.266;2023-12-22T12:22:06;93771.47;;;8.48;100.00
10652;BME280;5374;42.742;23.266;2023-12-22T12:24:53;93768.28;;;8.51;100.00
10652;BME280;5374;42.742;23.266;2023-12-22T12:27:41;93763.00;;;8.46;100.00
10652;BME280;5374;42.742;23.266;2023-12-22T12:30:30;93746.72;;;8.34;100.00
10652;BME280;5374;42.742;23.266;2023-12-22T12:33:18;93748.84;;;8.32;100.00
10652;BME280;5374;42.742;23.266;2023-12-22T12:36:06;93745.16;;;8.28;100.00
10652;BME280;5374;42.742;23.266;2023-12-22T12:38:55;93736.25;;;8.13;100.00
10652;BME280;5374;42.742;23.266;2023-12-22T12:41:47;93733.59;;;8.18;100.00
10652;BME280;5374;42.742;23.266;2023-12-22T12:44:41;93745.47;;;8.21;100.00
10652;BME280;5374;42.742;23.266;2023-12-22T12:47:31;93734.38;;;8.19;100.00
10652;BME280;5374;42.742;23.266;2023-12-22T12:50:21;93729.91;;;8.14;100.00
10652;BME280;5374;42.742;23.266;2023-12-22T12:53:08;93754.22;;;8.16;100.00
10652;BME280;5374;42.742;23.266;2023-12-22T12:55:56;93769.53;;;8.19;100.00
10652;BME280;5374;42.742;23.266;2023-12-22T12:58:43;93770.84;;;8.22;100.00
10652;BME280;5374;42.742;23.266;2023-12-22T13:01:30;93769.56;;;8.14;100.00
10652;BME280;5374;42.742;23.266;2023-12-22T13:04:19;93772.50;;;8.13;100.00
10652;BME280;5374;42.742;23.266;2023-12-22T13:07:06;93769.66;;;8.04;100.00
10652;BME280;5374;42.742;23.266;2023-12-22T13:09:55;93773.06;;;8.05;100.00
10652;BME280;5374;42.742;23.266;2023-12-22T13:12:43;93771.78;;;8.02;100.00
10652;BME280;5374;42.742;23.266;2023-12-22T13:15:30;93757.13;;;7.76;100.00
10652;BME280;5374;42.742;23.266;2023-12-22T13:18:17;93797.22;;;7.88;100.00
10652;BME280;5374;42.742;23.266;2023-12-22T13:21:06;93808.63;;;7.78;100.00
10652;BME280;5374;42.742;23.266;2023-12-22T13:24:09;93825.63;;;7.62;100.00
10652;BME280;5374;42.742;23.266;2023-12-22T13:27:01;93847.03;;;7.55;100.00
10652;BME280;5374;42.742;23.266;2023-12-22T13:29:49;93856.53;;;7.62;100.00
10652;BME280;5374;42.742;23.266;2023-12-22T13:32:38;93851.53;;;7.55;100.00
10652;BME280;5374;42.742;23.266;2023-12-22T13:35:25;93862.34;;;7.53;100.00
10652;BME280;5374;42.742;23.266;2023-12-22T13:38:15;93860.25;;;7.50;100.00
10652;BME280;5374;42.742;23.266;2023-12-22T13:41:03;93853.38;;;7.49;100.00
10652;BME280;5374;42.742;23.266;2023-12-22T13:43:50;93858.13;;;7.52;100.00
10652;BME280;5374;42.742;23.266;2023-12-22T13:46:38;93856.00;;;7.54;100.00
10652;BME280;5374;42.742;23.266;2023-12-22T13:49:33;93871.31;;;7.58;100.00
10652;BME280;5374;42.742;23.266;2023-12-22T13:52:27;93874.50;;;7.49;100.00
10652;BME280;5374;42.742;23.266;2023-12-22T13:55:19;93901.97;;;7.48;100.00
10652;BME280;5374;42.742;23.266;2023-12-22T13:58:08;93894.63;;;7.45;100.00
10652;BME280;5374;42.742;23.266;2023-12-22T14:00:57;93905.72;;;7.42;100.00
10652;BME280;5374;42.742;23.266;2023-12-22T14:03:44;93921.03;;;7.45;100.00
10652;BME280;5374;42.742;23.266;2023-12-22T14:06:31;93912.31;;;7.40;100.00
10652;BME280;5374;42.742;23.266;2023-12-22T14:09:19;93905.72;;;7.42;100.00
10652;BME280;5374;42.742;23.266;2023-12-22T14:12:11;93906.72;;;7.46;100.00
10652;BME280;5374;42.742;23.266;2023-12-22T14:14:58;93905.41;;;7.49;100.00
10652;BME280;5374;42.742;23.266;2023-12-22T14:17:45;93913.59;;;7.52;100.00
10652;BME280;5374;42.742;23.266;2023-12-22T14:20:33;93916.75;;;7.49;100.00
10652;BME280;5374;42.742;23.266;2023-12-22T14:23:20;93912.53;;;7.48;100.00
10652;BME280;5374;42.742;23.266;2023-12-22T14:26:07;93901.44;;;7.51;100.00
10652;BME280;5374;42.742;23.266;2023-12-22T14:28:56;93901.69;;;7.55;100.00
10652;BME280;5374;42.742;23.266;2023-12-22T14:31:43;93897.75;;;7.52;100.00
10652;BME280;5374;42.742;23.266;2023-12-22T14:34:30;93907.25;;;7.53;100.00
10652;BME280;5374;42.742;23.266;2023-12-22T14:37:19;93905.72;;;7.42;100.00
10652;BME280;5374;42.742;23.266;2023-12-22T14:40:07;93913.59;;;7.47;100.00
10652;BME280;5374;42.742;23.266;2023-12-22T14:42:55;93923.94;;;7.44;100.00
10652;BME280;5374;42.742;23.266;2023-12-22T14:45:43;93921.03;;;7.30;100.00
10652;BME280;5374;42.742;23.266;2023-12-22T14:48:30;93946.91;;;7.43;100.00
10652;BME280;5374;42.742;23.266;2023-12-22T14:51:17;93942.41;;;7.39;100.00